Time;durP1;ratioP1;P1;durP2;ratioP2;P2;SDS_P1;SDS_P2;PMS_P1;PMS_P2;Temp;Humidity;BMP_temperature;BMP_pressure;BME280_temperature;BME280_humidity;BME280_pressure;Samples;Min_cycle;Max_cycle;Signal;HPM_P1;HPM_P2
2021/11/28 00:02:22;;;;;;;12.77;6.40;;;;;;;-0.41;72.62;98386.25;8772362;33;20201;-72
2021/11/28 00:07:32;;;;;;;17.88;8.70;;;;;;;-0.72;72.55;98390.06;8775757;33;20430;-73
2021/11/28 00:12:41;;;;;;;17.23;8.32;;;;;;;-1.04;73.46;98393.03;8778423;33;20159;-73
2021/11/28 00:17:47;;;;;;;13.63;8.73;;;;;;;-1.09;74.53;98389.03;8777445;33;20140;-73
2021/11/28 00:22:50;;;;;;;11.67;8.17;;;;;;;-0.96;75.18;98387.25;8777177;33;20693;-73
2021/11/28 00:27:54;;;;;;;17.17;8.00;;;;;;;-0.79;75.05;98375.63;8777356;33;20163;-72
2021/11/28 00:33:00;;;;;;;15.00;8.53;;;;;;;-0.63;75.01;98378.06;8777159;33;20193;-73
2021/11/28 00:38:03;;;;;;;14.73;8.37;;;;;;;-0.51;74.32;98388.63;8777157;33;20521;-72
2021/11/28 00:43:08;;;;;;;15.37;8.20;;;;;;;-0.47;74.48;98386.63;8776928;33;20191;-72
2021/11/28 00:48:12;;;;;;;15.73;9.07;;;;;;;-0.37;74.13;98378.97;8752378;33;20218;-73
2021/11/28 00:53:19;;;;;;;15.73;9.03;;;;;;;-0.44;73.77;98377.66;8751635;33;20440;-73
2021/11/28 00:58:23;;;;;;;15.37;8.13;;;;;;;-0.60;74.10;98381.34;8751511;33;20553;-73
2021/11/28 01:03:27;;;;;;;13.53;8.43;;;;;;;-0.68;74.75;98385.47;8751063;33;20163;-73
2021/11/28 01:08:32;;;;;;;13.27;8.47;;;;;;;-0.60;74.72;98384.00;8752269;33;20762;-72
2021/11/28 01:13:35;;;;;;;13.48;8.50;;;;;;;-0.55;74.85;98392.44;8775927;33;21224;-72
2021/11/28 01:18:40;;;;;;;21.33;11.40;;;;;;;-0.53;74.64;98393.16;8776002;33;20195;-72
2021/11/28 01:23:44;;;;;;;15.98;9.38;;;;;;;-0.45;74.52;98395.28;8775638;33;20186;-73
2021/11/28 01:28:49;;;;;;;18.05;9.05;;;;;;;-0.31;74.09;98405.75;8750711;33;20136;-73
2021/11/28 01:33:54;;;;;;;16.48;8.38;;;;;;;-0.19;74.06;98404.09;8775435;33;20147;-73
2021/11/28 01:38:57;;;;;;;18.23;8.15;;;;;;;-0.07;73.44;98419.09;8750314;33;20560;-73
2021/11/28 01:44:01;;;;;;;14.52;7.95;;;;;;;-0.04;73.78;98404.00;8775186;33;20150;-73
2021/11/28 01:49:08;;;;;;;9.80;8.10;;;;;;;-0.13;74.10;98408.94;8750285;33;20179;-74
2021/11/28 01:54:12;;;;;;;13.13;8.57;;;;;;;-0.17;74.53;98414.53;8749364;33;21524;-73
2021/11/28 01:59:17;;;;;;;16.70;8.77;;;;;;;-0.28;74.32;98410.81;8749614;33;20217;-73
2021/11/28 02:04:25;;;;;;;13.07;8.57;;;;;;;-0.32;74.40;98412.00;8750025;33;20178;-73
2021/11/28 02:09:28;;;;;;;18.25;8.77;;;;;;;-0.33;74.62;98417.34;8774575;33;20242;-73
2021/11/28 02:14:31;;;;;;;15.60;9.03;;;;;;;-0.43;74.86;98427.69;8749883;33;20146;-73
2021/11/28 02:19:36;;;;;;;12.20;8.27;;;;;;;-0.43;74.98;98411.88;8749403;33;20244;-73
2021/11/28 02:24:40;;;;;;;16.60;8.90;;;;;;;-0.40;75.47;98416.94;8749482;33;20755;-73
2021/11/28 02:29:45;;;;;;;18.70;9.37;;;;;;;-0.37;75.40;98418.53;8749857;33;20194;-73
2021/11/28 02:34:48;;;;;;;15.23;9.03;;;;;;;-0.37;75.45;98411.44;8749822;33;20187;-73
2021/11/28 02:39:53;;;;;;;17.30;10.40;;;;;;;-0.39;75.46;98408.06;8749611;33;20261;-73
2021/11/28 02:44:56;;;;;;;14.03;8.83;;;;;;;-0.38;75.08;98411.56;8749381;33;21704;-73
2021/11/28 02:49:59;;;;;;;13.93;8.20;;;;;;;-0.37;75.17;98413.25;8773992;33;20333;-73
2021/11/28 02:55:06;;;;;;;15.80;7.83;;;;;;;-0.28;75.49;98416.09;8773982;33;20646;-73
2021/11/28 03:00:11;;;;;;;15.80;8.23;;;;;;;-0.15;74.78;98423.19;8748790;33;20150;-73
2021/11/28 03:05:17;;;;;;;13.37;8.10;;;;;;;-0.08;74.85;98416.56;8748971;33;20769;-73
2021/11/28 03:10:38;;;;;;;16.60;8.50;;;;;;;-0.08;74.72;98419.19;8748841;33;20147;-72
2021/11/28 03:15:42;;;;;;;11.20;7.53;;;;;;;-0.02;74.32;98418.78;8772348;33;20183;-73
2021/11/28 03:20:47;;;;;;;16.30;8.33;;;;;;;-0.10;74.16;98421.09;8748502;33;20328;-73
2021/11/28 03:25:51;;;;;;;13.15;7.93;;;;;;;-0.18;74.59;98426.03;8748858;33;20229;-73
2021/11/28 03:30:55;;;;;;;13.13;8.27;;;;;;;-0.14;74.41;98416.97;8773723;33;20160;-73
2021/11/28 03:36:22;;;;;;;14.23;7.55;;;;;;;-0.25;74.14;98422.13;8784316;33;20167;-73
2021/11/28 03:41:31;;;;;;;11.40;7.77;;;;;;;-0.29;74.40;98427.59;8769800;33;20420;-72
2021/11/28 03:46:34;;;;;;;12.30;7.60;;;;;;;-0.39;74.58;98426.53;8756930;33;20183;-73
2021/11/28 03:51:38;;;;;;;13.95;8.18;;;;;;;-0.40;74.98;98422.22;8758762;33;20179;-73
2021/11/28 03:56:46;;;;;;;13.97;7.93;;;;;;;-0.42;75.11;98423.25;8752977;33;20186;-73
2021/11/28 04:01:50;;;;;;;13.40;7.67;;;;;;;-0.45;74.96;98419.03;8752899;33;20154;-73
2021/11/28 04:06:54;;;;;;;26.90;11.37;;;;;;;-0.58;75.19;98416.34;8753231;33;20571;-73
2021/11/28 04:11:59;;;;;;;29.10;12.82;;;;;;;-0.65;75.09;98424.81;8752776;33;20183;-73
2021/11/28 04:17:03;;;;;;;17.97;9.57;;;;;;;-0.78;75.44;98430.88;8777326;33;20147;-73
2021/11/28 04:22:10;;;;;;;22.60;10.13;;;;;;;-0.83;75.62;98429.47;8752295;33;21226;-74
2021/11/28 04:27:17;;;;;;;19.33;9.03;;;;;;;-0.91;75.88;98431.75;8752743;33;20678;-73
2021/11/28 04:32:20;;;;;;;11.13;7.90;;;;;;;-0.98;76.01;98436.59;8778056;33;20440;-73
2021/11/28 04:37:33;;;;;;;11.90;7.03;;;;;;;-1.04;76.32;98437.84;8752417;33;20191;-73
2021/11/28 04:42:40;;;;;;;12.53;8.00;;;;;;;-1.08;76.41;98443.41;8751998;33;20182;-73
2021/11/28 04:47:43;;;;;;;15.23;8.10;;;;;;;-1.07;76.52;98448.59;8751708;33;20179;-72
2021/11/28 04:52:48;;;;;;;14.27;8.13;;;;;;;-1.06;76.66;98450.28;8751017;33;20198;-72
2021/11/28 04:57:52;;;;;;;17.30;7.47;;;;;;;-1.04;76.80;98442.25;8751697;33;20191;-73
2021/11/28 05:02:58;;;;;;;16.40;7.93;;;;;;;-0.98;76.48;98450.63;8751200;33;20636;-73
2021/11/28 05:08:06;;;;;;;13.57;8.50;;;;;;;-0.97;76.18;98449.66;8775420;33;20519;-73
2021/11/28 05:13:11;;;;;;;14.50;8.43;;;;;;;-0.90;76.12;98457.19;8750813;33;20695;-73
2021/11/28 05:18:16;;;;;;;12.30;8.00;;;;;;;-0.88;76.26;98461.41;8750619;33;20182;-73
2021/11/28 05:23:28;;;;;;;13.97;8.07;;;;;;;-0.83;76.23;98469.03;8750415;33;21074;-72
2021/11/28 05:28:33;;;;;;;14.03;8.67;;;;;;;-0.77;76.20;98464.22;8750090;33;21218;-72
2021/11/28 05:33:36;;;;;;;12.70;7.90;;;;;;;-0.70;76.13;98467.28;8750392;33;20597;-72
2021/11/28 05:38:57;;;;;;;12.20;8.27;;;;;;;-0.61;75.89;98479.00;8775116;33;20460;-73
2021/11/28 05:44:03;;;;;;;12.00;8.20;;;;;;;-0.59;75.54;98470.06;8750333;33;20794;-72
2021/11/28 05:49:17;;;;;;;15.37;8.80;;;;;;;-0.60;75.75;98476.28;8774390;33;20551;-74
2021/11/28 05:54:38;;;;;;;16.37;7.83;;;;;;;-0.58;75.56;98476.19;8749995;33;20718;-72
2021/11/28 05:59:43;;;;;;;14.40;8.20;;;;;;;-0.56;75.70;98469.03;8749808;33;20668;-72
2021/11/28 06:04:46;;;;;;;16.00;7.67;;;;;;;-0.58;76.01;98477.00;8751049;33;20183;-73
2021/11/28 06:10:21;;;;;;;13.13;8.43;;;;;;;-0.63;75.99;98488.81;8775057;33;20886;-73
2021/11/28 06:15:28;;;;;;;14.50;8.50;;;;;;;-0.61;76.17;98489.56;8749548;33;20217;-73
2021/11/28 06:20:54;;;;;;;14.70;8.37;;;;;;;-0.54;76.64;98496.16;8774466;33;20186;-73
2021/11/28 06:26:05;;;;;;;14.60;8.57;;;;;;;-0.53;76.42;98493.38;8750517;33;20498;-73
2021/11/28 06:31:10;;;;;;;14.70;9.03;;;;;;;-0.50;76.44;98503.72;8749550;33;20225;-73
2021/11/28 06:36:14;;;;;;;16.40;9.40;;;;;;;-0.49;76.61;98504.59;8775424;33;20179;-73
2021/11/28 06:41:35;;;;;;;24.23;11.43;;;;;;;-0.43;76.33;98488.38;8775218;33;20275;-73
2021/11/28 06:46:40;;;;;;;37.57;16.07;;;;;;;-0.41;76.48;98496.16;8750566;33;20223;-73
2021/11/28 06:51:44;;;;;;;39.67;16.33;;;;;;;-0.45;76.73;98508.72;8749682;33;20243;-73
2021/11/28 06:57:05;;;;;;;17.97;9.47;;;;;;;-0.45;76.84;98516.63;8749533;33;20247;-73
2021/11/28 07:02:10;;;;;;;12.23;8.07;;;;;;;-0.54;76.84;98514.59;8749355;33;20186;-72
2021/11/28 07:07:22;;;;;;;11.73;7.53;;;;;;;-0.54;77.31;98533.06;8775469;33;21100;-73
2021/11/28 07:12:35;;;;;;;14.50;9.50;;;;;;;-0.54;76.66;98527.78;8749477;33;20155;-73
2021/11/28 07:17:46;;;;;;;13.97;8.13;;;;;;;-0.56;76.91;98534.94;8753944;33;20333;-72
2021/11/28 07:23:18;;;;;;;14.00;8.83;;;;;;;-0.52;76.88;98533.81;8779599;33;21022;-73
2021/11/28 07:28:22;;;;;;;15.43;9.03;;;;;;;-0.62;76.88;98525.66;8754695;33;20218;-73
2021/11/28 07:33:26;;;;;;;12.97;8.73;;;;;;;-0.61;76.87;98523.84;8755268;33;20777;-71
2021/11/28 07:38:59;;;;;;;12.87;7.77;;;;;;;-0.59;76.95;98535.16;8755268;33;20237;-71
2021/11/28 07:44:02;;;;;;;13.27;8.53;;;;;;;-0.60;77.19;98547.50;8754767;33;20171;-71
2021/11/28 07:49:32;;;;;;;15.53;8.07;;;;;;;-0.45;77.00;98550.09;8779669;33;20235;-71
2021/11/28 07:54:45;;;;;;;15.63;8.67;;;;;;;-0.43;77.00;98556.13;8754280;33;20143;-72
2021/11/28 08:00:04;;;;;;;14.93;8.23;;;;;;;-0.45;76.76;98555.38;8754924;33;20223;-72
2021/11/28 08:05:10;;;;;;;20.23;8.87;;;;;;;-0.34;76.81;98558.97;8755413;33;20179;-72
2021/11/28 08:10:32;;;;;;;3.37;2.93;;;;;;;-0.34;76.45;98558.97;8779693;33;20190;-72
2021/11/28 08:15:35;;;;;;;24.58;14.40;;;;;;;0.02;77.16;98564.59;8754008;33;20710;-72
2021/11/28 08:20:40;;;;;;;22.00;10.38;;;;;;;0.28;76.04;98563.69;8779198;33;20619;-72
2021/11/28 08:25:43;;;;;;;18.90;11.73;;;;;;;0.48;75.52;98570.25;8778751;33;20450;-72
2021/11/28 08:30:47;;;;;;;14.88;8.38;;;;;;;0.69;75.14;98572.38;8778281;33;20254;-72
2021/11/28 08:36:11;;;;;;;9.57;6.68;;;;;;;0.89;73.86;98574.47;8720277;33;20700;-72
2021/11/28 08:41:15;;;;;;;10.27;6.70;;;;;;;1.16;73.24;98576.16;8792353;33;20277;-72
2021/11/28 08:46:20;;;;;;;11.25;6.75;;;;;;;1.37;72.41;98576.38;8792659;33;20175;-72
2021/11/28 08:51:25;;;;;;;12.07;6.80;;;;;;;1.50;71.33;98567.47;8777575;33;21475;-72
2021/11/28 08:56:28;;;;;;;13.07;7.72;;;;;;;1.20;72.11;98562.56;8752005;33;20205;-72
2021/11/28 09:01:32;;;;;;;12.52;7.47;;;;;;;1.56;72.18;98563.53;8778644;33;20194;-72
2021/11/28 09:06:37;;;;;;;15.02;9.10;;;;;;;1.36;71.90;98557.03;8791704;33;20439;-74
2021/11/28 09:11:40;;;;;;;13.63;8.93;;;;;;;1.92;71.86;98564.41;8804682;33;20713;-72
2021/11/28 09:16:43;;;;;;;13.02;8.60;;;;;;;1.94;69.54;98563.34;8754715;33;20183;-72
2021/11/28 09:21:48;;;;;;;13.77;8.60;;;;;;;1.59;71.22;98570.41;8778311;33;20143;-73
2021/11/28 09:26:51;;;;;;;15.57;9.45;;;;;;;1.97;70.44;98570.22;8777439;33;20245;-71
2021/11/28 09:31:54;;;;;;;13.57;8.35;;;;;;;2.26;70.27;98565.41;8776337;33;20179;-71
2021/11/28 09:36:59;;;;;;;17.50;9.00;;;;;;;2.68;67.58;98572.88;8777262;33;20155;-72
2021/11/28 09:42:05;;;;;;;15.52;9.70;;;;;;;2.28;68.31;98566.13;8776738;33;20625;-72
2021/11/28 09:47:11;;;;;;;15.68;9.43;;;;;;;1.98;69.78;98577.22;8777570;33;20232;-71
2021/11/28 09:52:21;;;;;;;13.40;9.30;;;;;;;1.81;70.57;98567.88;8750790;33;20166;-72
2021/11/28 09:57:25;;;;;;;16.85;9.15;;;;;;;1.47;72.28;98582.72;8776025;33;20469;-73
2021/11/28 10:02:31;;;;;;;15.98;9.57;;;;;;;1.48;72.51;98584.41;8775799;33;22314;-73
2021/11/28 10:07:41;;;;;;;15.95;9.27;;;;;;;1.33;73.34;98578.41;8775950;33;20208;-73
2021/11/28 10:12:47;;;;;;;16.42;10.23;;;;;;;1.37;74.06;98576.38;8775490;33;20197;-73
2021/11/28 10:17:51;;;;;;;19.70;10.98;;;;;;;1.69;73.19;98568.78;8775171;33;20161;-73
2021/11/28 10:22:56;;;;;;;16.10;10.40;;;;;;;1.94;72.32;98566.00;8774855;33;20337;-73
2021/11/28 10:28:09;;;;;;;18.65;11.43;;;;;;;1.83;72.21;98568.59;8751110;33;20778;-73
2021/11/28 10:33:15;;;;;;;19.65;11.50;;;;;;;1.85;72.84;98574.63;8776284;33;20436;-73
2021/11/28 10:38:20;;;;;;;21.60;11.98;;;;;;;2.15;71.93;98573.31;8775550;33;20758;-73
2021/11/28 10:43:24;;;;;;;20.13;11.18;;;;;;;1.95;71.80;98580.94;8750079;33;20190;-73
2021/11/28 10:48:28;;;;;;;21.80;12.65;;;;;;;2.04;72.53;98568.81;8751149;33;20454;-73
2021/11/28 10:53:33;;;;;;;18.25;11.75;;;;;;;1.88;72.33;98566.47;8774284;33;20177;-73
2021/11/28 10:58:36;;;;;;;19.77;12.82;;;;;;;1.86;72.78;98563.06;8774575;33;20190;-73
2021/11/28 11:03:47;;;;;;;17.95;12.18;;;;;;;1.81;72.81;98557.31;8749488;33;20655;-73
2021/11/28 11:08:55;;;;;;;21.00;12.43;;;;;;;2.25;72.48;98553.13;8774690;33;20224;-73
2021/11/28 11:14:00;;;;;;;20.33;13.95;;;;;;;2.48;71.56;98558.47;8774407;33;20179;-73
2021/11/28 11:19:31;;;;;;;19.33;14.65;;;;;;;2.32;71.64;98556.16;8775248;33;20200;-73
2021/11/28 11:24:40;;;;;;;21.75;14.15;;;;;;;2.78;71.45;98560.59;8771958;33;20732;-73
2021/11/28 11:29:48;;;;;;;20.60;15.05;;;;;;;2.11;72.25;98564.75;8774336;33;20186;-73
2021/11/28 11:34:57;;;;;;;25.05;15.02;;;;;;;2.26;71.89;98560.09;8773525;33;20269;-73
2021/11/28 11:40:05;;;;;;;25.85;14.75;;;;;;;2.59;71.31;98556.72;8773877;33;21107;-73
2021/11/28 11:45:11;;;;;;;25.75;14.48;;;;;;;2.46;71.00;98555.09;8773817;33;20180;-73
2021/11/28 11:50:18;;;;;;;28.45;15.05;;;;;;;2.14;72.21;98559.22;8773878;33;20178;-73
2021/11/28 11:55:27;;;;;;;25.83;15.50;;;;;;;2.27;72.80;98555.66;8749674;33;20682;-72
2021/11/28 12:00:37;;;;;;;23.30;14.30;;;;;;;2.27;72.03;98558.28;8774299;33;20338;-73
2021/11/28 12:05:41;;;;;;;26.52;15.02;;;;;;;2.35;72.27;98548.78;8779432;33;20237;-72
2021/11/28 12:10:59;;;;;;;27.27;14.90;;;;;;;2.32;72.38;98559.63;8754199;33;20178;-72
2021/11/28 12:16:18;;;;;;;24.92;15.02;;;;;;;2.23;72.66;98546.25;8778817;33;20444;-72
2021/11/28 12:21:25;;;;;;;29.80;15.95;;;;;;;2.40;73.06;98551.09;8778029;33;21050;-72
2021/11/28 12:26:51;;;;;;;27.13;15.45;;;;;;;2.15;73.65;98547.66;8777467;33;20187;-72
2021/11/28 12:31:57;;;;;;;28.63;15.07;;;;;;;2.25;73.61;98539.00;8777850;33;21218;-72
2021/11/28 12:37:01;;;;;;;26.00;15.23;;;;;;;1.95;74.00;98543.88;8752588;33;20191;-72
2021/11/28 12:42:09;;;;;;;32.13;15.35;;;;;;;2.10;74.31;98563.06;8775736;33;20591;-72
2021/11/28 12:47:21;;;;;;;29.73;15.82;;;;;;;1.79;75.50;98556.56;8777130;33;20211;-72
2021/11/28 12:52:40;;;;;;;32.13;16.08;;;;;;;1.83;75.78;98567.75;8777445;33;25451;-72
2021/11/28 12:57:48;;;;;;;26.92;14.52;;;;;;;1.79;76.09;98569.78;8799999;33;20699;-72
2021/11/28 13:02:56;;;;;;;32.63;16.08;;;;;;;1.72;75.94;98577.31;8805548;33;20197;-72
2021/11/28 13:08:30;;;;;;;27.90;16.23;;;;;;;1.97;75.79;98570.22;8780780;33;21129;-72
2021/11/28 13:14:03;;;;;;;33.95;16.50;;;;;;;1.71;76.50;98566.88;8804276;32;20179;-73
2021/11/28 13:19:06;;;;;;;35.15;17.55;;;;;;;1.94;75.98;98573.94;8808479;32;20236;-74
2021/11/28 13:24:29;;;;;;;34.38;17.08;;;;;;;1.54;76.59;98577.81;8805112;33;20175;-73
2021/11/28 13:29:58;;;;;;;28.13;12.65;;;;;;;1.38;76.42;98576.28;8804645;33;20206;-73
2021/11/28 13:35:13;;;;;;;33.65;16.25;;;;;;;1.64;75.74;98589.44;8803962;33;20965;-73
2021/11/28 13:40:17;;;;;;;35.13;15.65;;;;;;;1.30;76.43;98583.94;8775808;33;20197;-72
2021/11/28 13:45:22;;;;;;;35.15;16.65;;;;;;;1.33;76.49;98580.22;8750336;33;20897;-72
2021/11/28 13:50:25;;;;;;;30.27;14.65;;;;;;;1.68;75.82;98575.88;8751233;33;20227;-72
2021/11/28 13:55:28;;;;;;;33.20;15.98;;;;;;;1.62;75.79;98586.03;8775800;33;20181;-72
2021/11/28 14:00:33;;;;;;;35.15;16.98;;;;;;;1.56;75.26;98597.91;8775685;33;20254;-72
2021/11/28 14:05:36;;;;;;;32.40;14.40;;;;;;;1.32;75.45;98597.03;8751125;33;20722;-72
2021/11/28 14:10:39;;;;;;;26.95;13.65;;;;;;;1.12;76.24;98601.09;8776021;33;20506;-75
2021/11/28 14:15:54;;;;;;;26.13;13.35;;;;;;;1.26;76.16;98604.47;8775963;33;20205;-72
2021/11/28 14:21:07;;;;;;;33.05;16.13;;;;;;;1.53;74.84;98606.09;8750075;33;20179;-72
2021/11/28 14:26:10;;;;;;;28.30;13.70;;;;;;;1.68;73.84;98607.63;8774669;33;20237;-72
2021/11/28 14:31:16;;;;;;;24.55;13.90;;;;;;;1.68;74.21;98612.94;8775548;33;20163;-72
2021/11/28 14:36:24;;;;;;;31.83;13.95;;;;;;;1.59;73.82;98618.91;8776207;33;20214;-72
2021/11/28 14:41:36;;;;;;;28.67;13.85;;;;;;;1.69;74.33;98619.06;8803652;33;20182;-72
2021/11/28 14:46:41;;;;;;;32.20;14.82;;;;;;;1.69;74.27;98616.41;8818194;33;20166;-72
2021/11/28 14:51:47;;;;;;;32.28;14.88;;;;;;;1.56;74.91;98620.91;8781785;33;20328;-72
2021/11/28 14:56:53;;;;;;;34.17;17.15;;;;;;;1.46;76.03;98621.56;8775684;33;20278;-72
2021/11/28 15:02:06;;;;;;;27.77;16.55;;;;;;;1.57;75.52;98630.56;8774905;33;20251;-72
2021/11/28 15:07:10;;;;;;;35.83;15.70;;;;;;;1.60;75.64;98627.69;8773857;33;20218;-72
2021/11/28 15:12:27;;;;;;;31.15;16.20;;;;;;;1.45;75.85;98637.53;8774451;33;20228;-72
2021/11/28 15:17:34;;;;;;;31.08;16.25;;;;;;;1.37;76.27;98627.53;8776567;33;20194;-72
2021/11/28 15:22:41;;;;;;;44.17;27.85;;;;;;;1.27;76.94;98648.47;8774634;33;20189;-72
2021/11/28 15:27:45;;;;;;;29.45;15.07;;;;;;;1.48;76.46;98646.13;8775050;33;20222;-72
2021/11/28 15:32:52;;;;;;;40.85;21.23;;;;;;;1.35;76.86;98650.59;8748774;33;20680;-72
2021/11/28 15:37:59;;;;;;;69.13;38.95;;;;;;;1.56;76.38;98650.84;8776331;33;20151;-72
2021/11/28 15:43:06;;;;;;;37.92;22.35;;;;;;;1.57;76.40;98655.22;8779067;33;20182;-71
2021/11/28 15:48:11;;;;;;;27.80;16.27;;;;;;;1.56;76.46;98655.31;8754239;33;21730;-72
2021/11/28 15:53:14;;;;;;;37.03;23.20;;;;;;;1.60;76.26;98654.16;8779257;33;20220;-72
2021/11/28 15:58:17;;;;;;;37.13;19.70;;;;;;;1.53;76.34;98655.53;8779159;33;21028;-72
2021/11/28 16:03:22;;;;;;;34.65;18.35;;;;;;;1.40;76.85;98653.75;8778356;33;20238;-72
2021/11/28 16:08:26;;;;;;;25.35;14.68;;;;;;;1.35;77.26;98649.75;8779574;33;20206;-72
2021/11/28 16:13:29;;;;;;;34.22;16.80;;;;;;;1.36;77.38;98648.78;8801610;33;20186;-72
2021/11/28 16:18:34;;;;;;;33.35;16.90;;;;;;;1.37;77.56;98645.19;8807414;33;20176;-72
2021/11/28 16:23:37;;;;;;;25.90;13.63;;;;;;;1.36;77.46;98648.78;8807755;33;20190;-73
2021/11/28 16:28:40;;;;;;;29.73;16.05;;;;;;;1.30;77.75;98651.88;8814059;33;20643;-72
2021/11/28 16:33:46;;;;;;;30.45;16.13;;;;;;;1.28;78.55;98650.16;8837742;33;20155;-73
2021/11/28 16:38:49;;;;;;;35.45;16.88;;;;;;;1.11;79.51;98655.78;8837783;33;20138;-74
2021/11/28 16:43:53;;;;;;;34.20;18.40;;;;;;;1.06;80.24;98661.38;8837431;33;20899;-72
2021/11/28 16:48:57;;;;;;;33.83;17.65;;;;;;;1.13;80.06;98661.81;8837226;33;20213;-73
2021/11/28 16:54:00;;;;;;;34.95;18.05;;;;;;;1.15;79.94;98677.56;8838194;33;21633;-72
2021/11/28 16:59:04;;;;;;;32.53;16.52;;;;;;;1.23;79.92;98670.78;8837588;33;20207;-72
2021/11/28 17:04:08;;;;;;;36.70;16.98;;;;;;;1.22;79.70;98670.91;8837021;33;20598;-73
2021/11/28 17:09:12;;;;;;;32.92;16.95;;;;;;;1.19;79.52;98682.56;8837150;33;22563;-72
2021/11/28 17:14:16;;;;;;;37.42;17.95;;;;;;;1.25;79.55;98678.63;8837377;33;20182;-72
2021/11/28 17:19:20;;;;;;;33.65;17.55;;;;;;;1.40;78.93;98680.22;8836637;33;20997;-73
2021/11/28 17:24:24;;;;;;;32.00;16.88;;;;;;;1.47;78.79;98685.91;8836535;33;20154;-73
2021/11/28 17:29:27;;;;;;;35.63;17.58;;;;;;;1.42;79.17;98686.22;8836541;33;20197;-73
2021/11/28 17:34:32;;;;;;;34.55;15.82;;;;;;;1.33;79.37;98693.97;8837173;33;20209;-73
2021/11/28 17:39:35;;;;;;;29.88;14.25;;;;;;;1.28;79.22;98696.94;8836055;33;20158;-73
2021/11/28 17:44:38;;;;;;;30.95;16.92;;;;;;;1.33;79.28;98699.28;8836255;33;20182;-73
2021/11/28 17:49:44;;;;;;;32.83;16.17;;;;;;;1.40;79.29;98696.09;8835396;33;20591;-73
2021/11/28 17:54:47;;;;;;;37.17;16.95;;;;;;;1.13;81.00;98696.22;8781635;33;20181;-73
2021/11/28 17:59:50;;;;;;;35.95;16.48;;;;;;;1.03;82.05;98701.28;8802347;33;20217;-73
2021/11/28 18:04:54;;;;;;;35.40;17.73;;;;;;;0.94;82.99;98704.56;8803284;33;20190;-73
2021/11/28 18:09:57;;;;;;;33.15;15.73;;;;;;;1.03;83.61;98706.56;8804804;33;20585;-72
2021/11/28 18:15:01;;;;;;;36.30;18.85;;;;;;;0.42;85.53;98713.31;8804864;33;20277;-75
2021/11/28 18:20:08;;;;;;;31.00;16.63;;;;;;;0.68;85.55;98718.66;8803360;33;20924;-73
2021/11/28 18:25:12;;;;;;;34.05;15.52;;;;;;;0.68;85.56;98726.59;8801998;33;20147;-73
2021/11/28 18:30:16;;;;;;;28.67;15.27;;;;;;;0.61;85.91;98726.16;8780677;33;20543;-72
2021/11/28 18:35:20;;;;;;;40.90;22.67;;;;;;;0.67;85.87;98730.19;8835171;33;20634;-73
2021/11/28 18:40:25;;;;;;;33.92;17.45;;;;;;;0.69;86.10;98733.59;8835946;33;20488;-72
2021/11/28 18:45:33;;;;;;;38.22;22.27;;;;;;;0.78;86.18;98741.75;8787143;33;20140;-72
2021/11/28 18:50:37;;;;;;;35.08;16.77;;;;;;;0.70;86.08;98736.13;8749660;33;20732;-72
2021/11/28 18:55:41;;;;;;;36.28;15.85;;;;;;;0.71;86.22;98735.16;8786473;33;20240;-72
2021/11/28 19:00:44;;;;;;;35.53;18.73;;;;;;;0.82;86.03;98745.00;8785870;33;20236;-72
2021/11/28 19:05:49;;;;;;;37.03;18.80;;;;;;;0.80;86.21;98746.94;8786768;33;20185;-72
2021/11/28 19:10:57;;;;;;;38.30;19.10;;;;;;;0.79;86.43;98755.81;8802890;33;20575;-73
2021/11/28 19:16:01;;;;;;;35.53;17.48;;;;;;;0.92;86.14;98750.56;8784536;33;20496;-73
2021/11/28 19:21:06;;;;;;;37.63;18.80;;;;;;;0.96;86.38;98765.25;8779394;33;20230;-73
2021/11/28 19:26:10;;;;;;;39.10;21.92;;;;;;;0.92;86.31;98761.97;8779497;33;20202;-73
2021/11/28 19:31:13;;;;;;;40.17;19.25;;;;;;;1.02;86.18;98768.34;8754277;33;21873;-74
2021/11/28 19:36:19;;;;;;;36.72;19.00;;;;;;;1.10;86.16;98765.19;8780162;33;20423;-74
2021/11/28 19:41:25;;;;;;;30.67;17.17;;;;;;;1.17;85.83;98762.97;8779093;33;20285;-73
2021/11/28 19:46:30;;;;;;;27.70;15.48;;;;;;;1.25;85.50;98773.84;8753485;33;20254;-73
2021/11/28 19:51:36;;;;;;;20.60;11.75;;;;;;;1.10;85.18;98781.06;8778975;33;20242;-74
2021/11/28 19:56:39;;;;;;;22.83;14.30;;;;;;;1.12;85.60;98776.47;8778745;33;20183;-74
2021/11/28 20:01:43;;;;;;;26.35;12.95;;;;;;;1.32;84.80;98787.50;8754498;33;20951;-74
2021/11/28 20:06:47;;;;;;;16.63;9.30;;;;;;;1.35;84.56;98790.81;8807695;33;20582;-74
2021/11/28 20:11:50;;;;;;;22.77;11.35;;;;;;;1.25;84.87;98785.28;8781320;33;20182;-74
2021/11/28 20:16:58;;;;;;;19.80;12.43;;;;;;;1.28;84.87;98792.16;8808364;33;20253;-74
2021/11/28 20:22:04;;;;;;;13.63;8.70;;;;;;;1.33;84.59;98786.56;8805289;33;20868;-74
2021/11/28 20:27:08;;;;;;;16.27;10.35;;;;;;;1.11;84.86;98792.47;8808920;33;20222;-74
2021/11/28 20:32:12;;;;;;;13.77;8.35;;;;;;;1.09;85.54;98797.84;8807943;33;20421;-74
2021/11/28 20:37:16;;;;;;;13.70;7.95;;;;;;;0.89;85.75;98798.34;8806485;33;21509;-73
2021/11/28 20:42:19;;;;;;;12.23;7.70;;;;;;;0.85;85.67;98805.63;8790011;33;20469;-74
2021/11/28 20:47:42;;;;;;;13.57;7.32;;;;;;;1.18;85.31;98806.97;8862380;33;20430;-74
2021/11/28 20:52:48;;;;;;;12.70;7.55;;;;;;;1.06;85.59;98811.28;8840153;33;20816;-73
2021/11/28 20:57:51;;;;;;;11.10;7.47;;;;;;;1.10;84.79;98812.78;8839641;33;20277;-74
2021/11/28 21:02:56;;;;;;;15.15;9.02;;;;;;;0.79;85.50;98811.31;8837536;33;20598;-72
2021/11/28 21:08:01;;;;;;;19.73;11.27;;;;;;;0.67;85.69;98809.47;8838194;33;20209;-73
2021/11/28 21:13:05;;;;;;;14.40;8.48;;;;;;;0.84;85.36;98819.78;8837516;33;20423;-73
2021/11/28 21:18:10;;;;;;;10.55;7.20;;;;;;;0.89;84.87;98822.97;8837023;33;20197;-72
2021/11/28 21:23:14;;;;;;;11.63;10.13;;;;;;;0.90;84.33;98823.81;8809797;33;20238;-73
2021/11/28 21:28:17;;;;;;;10.77;7.57;;;;;;;1.15;83.88;98823.03;8804260;33;20173;-73
2021/11/28 21:33:22;;;;;;;11.38;6.82;;;;;;;0.83;84.13;98818.94;8807817;32;20205;-74
2021/11/28 21:38:26;;;;;;;22.05;17.10;;;;;;;0.75;83.88;98823.88;8803881;32;20766;-74
2021/11/28 21:43:30;;;;;;;15.73;10.40;;;;;;;0.64;84.35;98842.25;8804684;32;20495;-73
2021/11/28 21:48:33;;;;;;;12.10;6.55;;;;;;;0.76;83.56;98838.78;8805412;33;20213;-75
2021/11/28 21:53:38;;;;;;;10.07;7.10;;;;;;;0.78;83.46;98843.97;8805211;33;20178;-74
2021/11/28 21:58:41;;;;;;;10.90;7.18;;;;;;;0.65;83.84;98843.91;8802667;33;20147;-73
2021/11/28 22:03:44;;;;;;;9.30;5.90;;;;;;;0.81;83.19;98846.41;8781336;33;20214;-73
2021/11/28 22:08:49;;;;;;;8.98;6.25;;;;;;;0.75;83.32;98849.47;8804939;33;20238;-73
2021/11/28 22:13:52;;;;;;;8.88;6.72;;;;;;;0.72;83.38;98849.69;8791446;33;20332;-74
2021/11/28 22:18:55;;;;;;;11.27;6.40;;;;;;;0.51;83.54;98850.09;8775877;33;21570;-74
2021/11/28 22:24:03;;;;;;;8.35;6.13;;;;;;;0.38;84.09;98846.53;8791577;33;20678;-74
2021/11/28 22:29:07;;;;;;;8.88;6.03;;;;;;;0.43;83.82;98849.72;8802114;33;20248;-75
2021/11/28 22:34:10;;;;;;;10.50;5.67;;;;;;;0.35;85.02;98859.94;8802411;33;20444;-74
2021/11/28 22:39:15;;;;;;;9.93;5.40;;;;;;;0.14;85.21;98854.22;8801646;33;20259;-73
2021/11/28 22:44:19;;;;;;;6.15;4.35;;;;;;;0.23;85.04;98850.16;8801935;33;20186;-73
2021/11/28 22:49:22;;;;;;;8.90;4.35;;;;;;;0.01;86.39;98855.94;8779550;33;20422;-73
2021/11/28 22:54:27;;;;;;;5.65;4.10;;;;;;;0.24;85.14;98862.41;8794538;33;20451;-73
2021/11/28 22:59:30;;;;;;;8.90;4.73;;;;;;;0.20;85.60;98866.19;8801455;33;20307;-74
2021/11/28 23:04:33;;;;;;;8.23;5.03;;;;;;;0.16;85.57;98869.03;8792258;33;20185;-73
2021/11/28 23:09:38;;;;;;;6.40;4.55;;;;;;;0.08;86.34;98863.38;8833879;33;20178;-73
2021/11/28 23:14:41;;;;;;;10.27;5.30;;;;;;;0.10;86.31;98863.28;8834040;33;20198;-73
2021/11/28 23:19:44;;;;;;;8.95;5.18;;;;;;;0.14;85.81;98860.34;8833720;33;20215;-74
2021/11/28 23:24:48;;;;;;;12.43;5.37;;;;;;;0.19;85.38;98859.19;8834335;33;20261;-74
2021/11/28 23:29:51;;;;;;;7.77;4.73;;;;;;;0.21;85.02;98863.44;8833525;33;20201;-74
2021/11/28 23:34:54;;;;;;;11.73;7.13;;;;;;;0.13;85.88;98879.75;8833610;33;20215;-73
2021/11/28 23:39:59;;;;;;;14.23;8.17;;;;;;;0.09;85.38;98880.06;8808284;33;20139;-73
2021/11/28 23:45:03;;;;;;;16.17;8.40;;;;;;;0.19;85.10;98880.31;8833326;33;20537;-74
2021/11/28 23:50:07;;;;;;;18.70;8.87;;;;;;;0.23;85.60;98880.06;8832007;33;20182;-73